Airport View

Enter AWOS ICAO identifier for current METAR.

ex. KFNL

KGNB 050551Z AUTO 00000KT 10SM SCT120 16/08 A3035 RMK AO2 T01610075

5 Aug 2020 12:50

Frequency: 119.925

Phone: 970-887-1803

Other Area AWOS: K0CO - K20V - KBDU - KLMO

TAF KBJC 051121Z 0512/0612 02006KT P6SM SCT150 FM051600 08006KT P6SM SCT150 FM051900 08012KT P6SM SCT070 BKN120 PROB30 0521/0524 VRB20G35KT 5SM TSRA BKN060CB FM060100 15009KT P6SM SCT080 BKN140 FM060400 23006KT P6SM SCT140